sensor_id;sensor_type;location;lat;lon;timestamp;P1;durP1;ratioP1;P2;durP2;ratioP2
527;SDS011;250;47.712;7.508;2022-07-12T00:00:19;4.47;;;4.07;;
527;SDS011;250;47.712;7.508;2022-07-12T00:02:47;6.60;;;3.77;;
527;SDS011;250;47.712;7.508;2022-07-12T00:05:14;5.30;;;4.80;;
527;SDS011;250;47.712;7.508;2022-07-12T00:07:42;5.00;;;4.03;;
527;SDS011;250;47.712;7.508;2022-07-12T00:10:09;4.67;;;4.17;;
527;SDS011;250;47.712;7.508;2022-07-12T00:12:37;5.10;;;4.03;;
527;SDS011;250;47.712;7.508;2022-07-12T00:15:05;6.20;;;4.43;;
527;SDS011;250;47.712;7.508;2022-07-12T00:17:33;7.83;;;4.40;;
527;SDS011;250;47.712;7.508;2022-07-12T00:20:00;4.77;;;4.30;;
527;SDS011;250;47.712;7.508;2022-07-12T00:22:27;7.63;;;4.47;;
527;SDS011;250;47.712;7.508;2022-07-12T00:24:56;5.20;;;3.87;;
527;SDS011;250;47.712;7.508;2022-07-12T00:27:23;7.30;;;4.97;;
527;SDS011;250;47.712;7.508;2022-07-12T00:29:50;6.10;;;4.30;;
527;SDS011;250;47.712;7.508;2022-07-12T00:32:17;5.67;;;4.30;;
527;SDS011;250;47.712;7.508;2022-07-12T00:34:44;5.30;;;4.30;;
527;SDS011;250;47.712;7.508;2022-07-12T00:37:11;4.70;;;4.30;;
527;SDS011;250;47.712;7.508;2022-07-12T00:39:38;4.03;;;3.50;;
527;SDS011;250;47.712;7.508;2022-07-12T00:42:07;7.03;;;4.80;;
527;SDS011;250;47.712;7.508;2022-07-12T00:44:34;6.00;;;5.10;;
527;SDS011;250;47.712;7.508;2022-07-12T00:47:01;4.90;;;4.40;;
527;SDS011;250;47.712;7.508;2022-07-12T00:49:29;6.17;;;4.53;;
527;SDS011;250;47.712;7.508;2022-07-12T00:51:57;6.83;;;5.17;;
527;SDS011;250;47.712;7.508;2022-07-12T00:54:24;5.10;;;4.60;;
527;SDS011;250;47.712;7.508;2022-07-12T00:56:51;5.47;;;4.50;;
527;SDS011;250;47.712;7.508;2022-07-12T00:59:20;5.93;;;4.77;;
527;SDS011;250;47.712;7.508;2022-07-12T01:01:47;6.97;;;4.97;;
527;SDS011;250;47.712;7.508;2022-07-12T01:04:14;5.63;;;4.30;;
527;SDS011;250;47.712;7.508;2022-07-12T01:06:43;5.27;;;4.67;;
527;SDS011;250;47.712;7.508;2022-07-12T01:09:11;6.80;;;4.83;;
527;SDS011;250;47.712;7.508;2022-07-12T01:11:38;6.60;;;4.60;;
527;SDS011;250;47.712;7.508;2022-07-12T01:14:05;8.60;;;4.67;;
527;SDS011;250;47.712;7.508;2022-07-12T01:16:34;5.40;;;4.07;;
527;SDS011;250;47.712;7.508;2022-07-12T01:19:03;7.03;;;4.17;;
527;SDS011;250;47.712;7.508;2022-07-12T01:21:34;5.83;;;5.13;;
527;SDS011;250;47.712;7.508;2022-07-12T01:24:06;4.90;;;4.20;;
527;SDS011;250;47.712;7.508;2022-07-12T01:26:35;4.90;;;4.30;;
527;SDS011;250;47.712;7.508;2022-07-12T01:29:02;6.83;;;4.40;;
527;SDS011;250;47.712;7.508;2022-07-12T01:31:31;6.60;;;4.57;;
527;SDS011;250;47.712;7.508;2022-07-12T01:34:00;6.20;;;3.90;;
527;SDS011;250;47.712;7.508;2022-07-12T01:36:28;5.27;;;4.67;;
527;SDS011;250;47.712;7.508;2022-07-12T01:38:55;4.87;;;4.37;;
527;SDS011;250;47.712;7.508;2022-07-12T01:41:24;4.87;;;4.37;;
527;SDS011;250;47.712;7.508;2022-07-12T01:43:51;5.90;;;4.13;;
527;SDS011;250;47.712;7.508;2022-07-12T01:46:19;4.30;;;3.90;;
527;SDS011;250;47.712;7.508;2022-07-12T01:48:46;4.43;;;4.00;;
527;SDS011;250;47.712;7.508;2022-07-12T01:51:13;6.73;;;4.80;;
527;SDS011;250;47.712;7.508;2022-07-12T01:53:40;6.70;;;4.10;;
527;SDS011;250;47.712;7.508;2022-07-12T01:56:08;5.30;;;4.50;;
527;SDS011;250;47.712;7.508;2022-07-12T01:58:36;5.43;;;4.40;;
527;SDS011;250;47.712;7.508;2022-07-12T02:01:04;5.00;;;4.33;;
527;SDS011;250;47.712;7.508;2022-07-12T02:03:33;6.57;;;4.50;;
527;SDS011;250;47.712;7.508;2022-07-12T02:06:01;7.20;;;4.57;;
527;SDS011;250;47.712;7.508;2022-07-12T02:08:28;4.53;;;4.00;;
527;SDS011;250;47.712;7.508;2022-07-12T02:10:55;4.87;;;4.00;;
527;SDS011;250;47.712;7.508;2022-07-12T02:13:22;5.47;;;4.30;;
527;SDS011;250;47.712;7.508;2022-07-12T02:15:51;4.90;;;4.40;;
527;SDS011;250;47.712;7.508;2022-07-12T02:18:18;5.70;;;4.97;;
527;SDS011;250;47.712;7.508;2022-07-12T02:20:45;7.00;;;4.20;;
527;SDS011;250;47.712;7.508;2022-07-12T02:23:12;5.67;;;4.20;;
527;SDS011;250;47.712;7.508;2022-07-12T02:25:39;4.57;;;4.13;;
527;SDS011;250;47.712;7.508;2022-07-12T02:28:06;4.50;;;4.00;;
527;SDS011;250;47.712;7.508;2022-07-12T02:30:33;5.60;;;4.90;;
527;SDS011;250;47.712;7.508;2022-07-12T02:33:01;6.17;;;5.00;;
527;SDS011;250;47.712;7.508;2022-07-12T02:35:29;5.80;;;4.57;;
527;SDS011;250;47.712;7.508;2022-07-12T02:37:56;6.20;;;5.10;;
527;SDS011;250;47.712;7.508;2022-07-12T02:40:23;5.77;;;5.03;;
527;SDS011;250;47.712;7.508;2022-07-12T02:43:07;5.73;;;4.80;;
527;SDS011;250;47.712;7.508;2022-07-12T02:45:34;5.30;;;4.40;;
527;SDS011;250;47.712;7.508;2022-07-12T02:48:03;6.07;;;4.20;;
527;SDS011;250;47.712;7.508;2022-07-12T02:50:30;5.30;;;4.23;;
527;SDS011;250;47.712;7.508;2022-07-12T02:52:58;6.97;;;4.60;;
527;SDS011;250;47.712;7.508;2022-07-12T02:55:25;5.87;;;4.30;;
527;SDS011;250;47.712;7.508;2022-07-12T02:57:52;5.67;;;4.17;;
527;SDS011;250;47.712;7.508;2022-07-12T03:00:19;4.90;;;4.40;;
527;SDS011;250;47.712;7.508;2022-07-12T03:02:46;5.30;;;4.80;;
527;SDS011;250;47.712;7.508;2022-07-12T03:05:14;4.80;;;4.30;;
527;SDS011;250;47.712;7.508;2022-07-12T03:07:41;5.77;;;4.17;;
527;SDS011;250;47.712;7.508;2022-07-12T03:10:09;5.40;;;3.97;;
527;SDS011;250;47.712;7.508;2022-07-12T03:12:36;5.00;;;4.47;;
527;SDS011;250;47.712;7.508;2022-07-12T03:15:04;6.23;;;5.20;;
527;SDS011;250;47.712;7.508;2022-07-12T03:17:32;5.50;;;4.30;;
527;SDS011;250;47.712;7.508;2022-07-12T03:19:59;5.03;;;4.23;;
527;SDS011;250;47.712;7.508;2022-07-12T03:22:28;4.80;;;4.30;;
527;SDS011;250;47.712;7.508;2022-07-12T03:24:55;5.10;;;4.40;;
527;SDS011;250;47.712;7.508;2022-07-12T03:27:22;5.10;;;3.90;;
527;SDS011;250;47.712;7.508;2022-07-12T03:29:50;4.80;;;3.93;;
527;SDS011;250;47.712;7.508;2022-07-12T03:32:17;6.20;;;5.17;;
527;SDS011;250;47.712;7.508;2022-07-12T03:34:45;6.60;;;4.57;;
527;SDS011;250;47.712;7.508;2022-07-12T03:37:12;7.03;;;5.10;;
527;SDS011;250;47.712;7.508;2022-07-12T03:39:40;5.20;;;4.30;;
527;SDS011;250;47.712;7.508;2022-07-12T03:42:07;5.00;;;4.50;;
527;SDS011;250;47.712;7.508;2022-07-12T03:44:36;7.10;;;4.60;;
527;SDS011;250;47.712;7.508;2022-07-12T03:47:03;5.10;;;4.40;;
527;SDS011;250;47.712;7.508;2022-07-12T03:49:30;6.30;;;5.10;;
527;SDS011;250;47.712;7.508;2022-07-12T03:51:58;4.37;;;3.97;;
527;SDS011;250;47.712;7.508;2022-07-12T03:54:25;5.90;;;4.87;;
527;SDS011;250;47.712;7.508;2022-07-12T03:56:53;5.03;;;4.40;;
527;SDS011;250;47.712;7.508;2022-07-12T03:59:38;6.23;;;4.40;;
527;SDS011;250;47.712;7.508;2022-07-12T04:02:05;6.77;;;4.90;;
527;SDS011;250;47.712;7.508;2022-07-12T04:04:32;8.00;;;5.00;;
527;SDS011;250;47.712;7.508;2022-07-12T04:06:59;5.70;;;4.20;;
527;SDS011;250;47.712;7.508;2022-07-12T04:09:26;5.97;;;4.80;;
527;SDS011;250;47.712;7.508;2022-07-12T04:11:55;5.47;;;4.57;;
527;SDS011;250;47.712;7.508;2022-07-12T04:14:22;6.47;;;4.23;;
527;SDS011;250;47.712;7.508;2022-07-12T04:16:49;6.33;;;5.40;;
527;SDS011;250;47.712;7.508;2022-07-12T04:19:16;4.90;;;4.40;;
527;SDS011;250;47.712;7.508;2022-07-12T04:21:44;4.47;;;4.00;;
527;SDS011;250;47.712;7.508;2022-07-12T04:24:11;8.43;;;4.97;;
527;SDS011;250;47.712;7.508;2022-07-12T04:26:38;5.83;;;4.60;;
527;SDS011;250;47.712;7.508;2022-07-12T04:29:06;5.50;;;4.63;;
527;SDS011;250;47.712;7.508;2022-07-12T04:31:33;5.00;;;3.80;;
527;SDS011;250;47.712;7.508;2022-07-12T04:34:01;4.63;;;4.13;;
527;SDS011;250;47.712;7.508;2022-07-12T04:36:28;5.13;;;4.60;;
527;SDS011;250;47.712;7.508;2022-07-12T04:38:55;4.93;;;4.47;;
527;SDS011;250;47.712;7.508;2022-07-12T04:41:22;5.00;;;4.00;;
527;SDS011;250;47.712;7.508;2022-07-12T04:43:49;8.50;;;4.20;;
527;SDS011;250;47.712;7.508;2022-07-12T04:46:17;6.20;;;4.93;;
527;SDS011;250;47.712;7.508;2022-07-12T04:48:45;6.80;;;5.30;;
527;SDS011;250;47.712;7.508;2022-07-12T04:51:12;5.83;;;4.40;;
527;SDS011;250;47.712;7.508;2022-07-12T04:53:40;5.33;;;4.60;;
527;SDS011;250;47.712;7.508;2022-07-12T04:56:07;6.17;;;4.90;;
527;SDS011;250;47.712;7.508;2022-07-12T04:58:34;5.40;;;4.80;;
527;SDS011;250;47.712;7.508;2022-07-12T05:01:01;5.90;;;4.70;;
527;SDS011;250;47.712;7.508;2022-07-12T05:03:30;7.23;;;4.20;;
527;SDS011;250;47.712;7.508;2022-07-12T05:05:57;6.80;;;4.50;;
527;SDS011;250;47.712;7.508;2022-07-12T05:08:24;7.07;;;5.20;;
527;SDS011;250;47.712;7.508;2022-07-12T05:10:51;5.20;;;4.70;;
527;SDS011;250;47.712;7.508;2022-07-12T05:13:19;6.73;;;5.67;;
527;SDS011;250;47.712;7.508;2022-07-12T05:15:46;6.37;;;5.23;;
527;SDS011;250;47.712;7.508;2022-07-12T05:18:13;6.80;;;4.80;;
527;SDS011;250;47.712;7.508;2022-07-12T05:20:41;5.10;;;4.30;;
527;SDS011;250;47.712;7.508;2022-07-12T05:23:08;7.77;;;5.00;;
527;SDS011;250;47.712;7.508;2022-07-12T05:25:35;6.27;;;5.17;;
527;SDS011;250;47.712;7.508;2022-07-12T05:28:03;5.90;;;5.30;;
527;SDS011;250;47.712;7.508;2022-07-12T05:30:30;5.80;;;5.20;;
527;SDS011;250;47.712;7.508;2022-07-12T05:32:58;6.80;;;5.33;;
527;SDS011;250;47.712;7.508;2022-07-12T05:35:25;9.13;;;5.97;;
527;SDS011;250;47.712;7.508;2022-07-12T05:37:54;6.03;;;5.13;;
527;SDS011;250;47.712;7.508;2022-07-12T05:40:21;6.10;;;5.50;;
527;SDS011;250;47.712;7.508;2022-07-12T05:42:48;6.97;;;5.70;;
527;SDS011;250;47.712;7.508;2022-07-12T05:45:16;8.30;;;6.63;;
527;SDS011;250;47.712;7.508;2022-07-12T05:47:43;7.23;;;6.13;;
527;SDS011;250;47.712;7.508;2022-07-12T05:50:10;10.60;;;5.60;;
527;SDS011;250;47.712;7.508;2022-07-12T05:52:37;5.87;;;5.27;;
527;SDS011;250;47.712;7.508;2022-07-12T05:55:23;7.00;;;6.30;;
527;SDS011;250;47.712;7.508;2022-07-12T05:57:50;6.93;;;6.30;;
527;SDS011;250;47.712;7.508;2022-07-12T06:00:17;7.67;;;6.10;;
527;SDS011;250;47.712;7.508;2022-07-12T06:02:44;8.23;;;5.90;;
527;SDS011;250;47.712;7.508;2022-07-12T06:05:11;7.80;;;7.00;;
527;SDS011;250;47.712;7.508;2022-07-12T06:07:38;9.03;;;7.30;;
527;SDS011;250;47.712;7.508;2022-07-12T06:10:06;8.30;;;6.37;;
527;SDS011;250;47.712;7.508;2022-07-12T06:12:34;9.37;;;8.37;;
527;SDS011;250;47.712;7.508;2022-07-12T06:15:03;8.03;;;6.80;;
527;SDS011;250;47.712;7.508;2022-07-12T06:17:32;11.03;;;8.70;;
527;SDS011;250;47.712;7.508;2022-07-12T06:19:59;8.93;;;8.00;;
527;SDS011;250;47.712;7.508;2022-07-12T06:22:27;8.50;;;7.67;;
527;SDS011;250;47.712;7.508;2022-07-12T06:24:54;7.90;;;7.20;;
527;SDS011;250;47.712;7.508;2022-07-12T06:27:21;10.00;;;9.00;;
527;SDS011;250;47.712;7.508;2022-07-12T06:29:50;10.97;;;9.77;;
527;SDS011;250;47.712;7.508;2022-07-12T06:32:17;8.43;;;7.63;;
527;SDS011;250;47.712;7.508;2022-07-12T06:34:45;10.20;;;7.93;;
527;SDS011;250;47.712;7.508;2022-07-12T06:37:12;9.57;;;8.50;;
527;SDS011;250;47.712;7.508;2022-07-12T06:39:40;10.90;;;9.30;;
527;SDS011;250;47.712;7.508;2022-07-12T06:42:07;11.87;;;9.67;;
527;SDS011;250;47.712;7.508;2022-07-12T06:44:34;10.10;;;9.10;;
527;SDS011;250;47.712;7.508;2022-07-12T06:47:03;10.17;;;9.17;;
527;SDS011;250;47.712;7.508;2022-07-12T06:49:30;9.60;;;8.23;;
527;SDS011;250;47.712;7.508;2022-07-12T06:51:57;9.67;;;8.73;;
527;SDS011;250;47.712;7.508;2022-07-12T06:54:25;8.80;;;7.93;;
527;SDS011;250;47.712;7.508;2022-07-12T06:56:52;8.00;;;7.20;;
527;SDS011;250;47.712;7.508;2022-07-12T06:59:19;8.40;;;7.33;;
527;SDS011;250;47.712;7.508;2022-07-12T07:01:46;7.80;;;7.00;;
527;SDS011;250;47.712;7.508;2022-07-12T07:04:16;9.33;;;8.00;;
527;SDS011;250;47.712;7.508;2022-07-12T07:06:43;9.50;;;8.60;;
527;SDS011;250;47.712;7.508;2022-07-12T07:09:10;9.73;;;8.53;;
527;SDS011;250;47.712;7.508;2022-07-12T07:11:37;9.60;;;8.63;;
527;SDS011;250;47.712;7.508;2022-07-12T07:14:04;9.20;;;7.00;;
527;SDS011;250;47.712;7.508;2022-07-12T07:16:31;7.97;;;7.03;;
527;SDS011;250;47.712;7.508;2022-07-12T07:18:58;10.20;;;7.23;;
527;SDS011;250;47.712;7.508;2022-07-12T07:21:29;9.60;;;7.40;;
527;SDS011;250;47.712;7.508;2022-07-12T07:23:56;6.07;;;5.47;;
527;SDS011;250;47.712;7.508;2022-07-12T07:26:23;7.60;;;6.10;;
527;SDS011;250;47.712;7.508;2022-07-12T07:28:50;8.20;;;7.40;;
527;SDS011;250;47.712;7.508;2022-07-12T07:31:35;9.90;;;6.70;;
527;SDS011;250;47.712;7.508;2022-07-12T07:34:02;7.53;;;6.73;;
527;SDS011;250;47.712;7.508;2022-07-12T07:36:31;10.83;;;7.37;;
527;SDS011;250;47.712;7.508;2022-07-12T07:38:59;9.93;;;7.53;;
527;SDS011;250;47.712;7.508;2022-07-12T07:41:26;9.40;;;7.10;;
527;SDS011;250;47.712;7.508;2022-07-12T07:43:53;7.77;;;6.40;;
527;SDS011;250;47.712;7.508;2022-07-12T07:46:20;13.40;;;8.87;;
527;SDS011;250;47.712;7.508;2022-07-12T07:48:48;10.43;;;8.20;;
527;SDS011;250;47.712;7.508;2022-07-12T07:51:15;9.07;;;6.43;;
527;SDS011;250;47.712;7.508;2022-07-12T07:53:43;9.40;;;8.40;;
527;SDS011;250;47.712;7.508;2022-07-12T07:56:10;8.30;;;7.50;;
527;SDS011;250;47.712;7.508;2022-07-12T07:58:37;9.13;;;8.23;;
527;SDS011;250;47.712;7.508;2022-07-12T08:01:05;8.27;;;7.47;;
527;SDS011;250;47.712;7.508;2022-07-12T08:03:32;9.57;;;8.60;;
527;SDS011;250;47.712;7.508;2022-07-12T08:05:59;9.40;;;8.53;;
527;SDS011;250;47.712;7.508;2022-07-12T08:08:26;9.47;;;7.60;;
527;SDS011;250;47.712;7.508;2022-07-12T08:10:55;9.17;;;7.77;;
527;SDS011;250;47.712;7.508;2022-07-12T08:13:22;9.23;;;7.93;;
527;SDS011;250;47.712;7.508;2022-07-12T08:15:50;10.47;;;8.30;;
527;SDS011;250;47.712;7.508;2022-07-12T08:18:17;7.93;;;7.13;;
527;SDS011;250;47.712;7.508;2022-07-12T08:20:44;7.70;;;7.00;;
527;SDS011;250;47.712;7.508;2022-07-12T08:23:11;6.20;;;5.60;;
527;SDS011;250;47.712;7.508;2022-07-12T08:25:38;7.03;;;5.67;;
527;SDS011;250;47.712;7.508;2022-07-12T08:28:07;5.10;;;4.13;;
527;SDS011;250;47.712;7.508;2022-07-12T08:30:34;5.23;;;4.20;;
527;SDS011;250;47.712;7.508;2022-07-12T08:33:01;7.57;;;2.80;;
527;SDS011;250;47.712;7.508;2022-07-12T08:35:28;4.00;;;2.60;;
527;SDS011;250;47.712;7.508;2022-07-12T08:37:55;2.83;;;2.17;;
527;SDS011;250;47.712;7.508;2022-07-12T08:40:22;3.23;;;2.57;;
527;SDS011;250;47.712;7.508;2022-07-12T08:42:50;3.50;;;3.00;;
527;SDS011;250;47.712;7.508;2022-07-12T08:45:18;5.13;;;3.17;;
527;SDS011;250;47.712;7.508;2022-07-12T08:47:45;5.03;;;4.53;;
527;SDS011;250;47.712;7.508;2022-07-12T08:50:13;7.13;;;5.10;;
527;SDS011;250;47.712;7.508;2022-07-12T08:52:43;4.07;;;3.63;;
527;SDS011;250;47.712;7.508;2022-07-12T08:55:15;6.73;;;4.07;;
527;SDS011;250;47.712;7.508;2022-07-12T08:57:50;3.90;;;3.20;;
527;SDS011;250;47.712;7.508;2022-07-12T09:00:20;3.07;;;2.77;;
527;SDS011;250;47.712;7.508;2022-07-12T09:02:49;6.70;;;3.80;;
527;SDS011;250;47.712;7.508;2022-07-12T09:05:18;5.47;;;4.33;;
527;SDS011;250;47.712;7.508;2022-07-12T09:07:47;3.87;;;3.50;;
527;SDS011;250;47.712;7.508;2022-07-12T09:10:14;6.00;;;4.33;;
527;SDS011;250;47.712;7.508;2022-07-12T09:12:42;4.50;;;4.07;;
527;SDS011;250;47.712;7.508;2022-07-12T09:15:11;7.33;;;4.70;;
527;SDS011;250;47.712;7.508;2022-07-12T09:17:45;8.00;;;5.10;;
527;SDS011;250;47.712;7.508;2022-07-12T09:20:21;6.33;;;4.73;;
527;SDS011;250;47.712;7.508;2022-07-12T09:22:53;12.27;;;4.50;;
527;SDS011;250;47.712;7.508;2022-07-12T09:25:22;6.50;;;4.53;;
527;SDS011;250;47.712;7.508;2022-07-12T09:27:53;5.03;;;3.20;;
527;SDS011;250;47.712;7.508;2022-07-12T09:30:21;5.87;;;4.47;;
527;SDS011;250;47.712;7.508;2022-07-12T09:32:56;5.30;;;3.63;;
527;SDS011;250;47.712;7.508;2022-07-12T09:35:41;8.50;;;3.70;;
527;SDS011;250;47.712;7.508;2022-07-12T09:38:26;5.57;;;3.03;;
527;SDS011;250;47.712;7.508;2022-07-12T09:40:54;4.23;;;2.90;;
527;SDS011;250;47.712;7.508;2022-07-12T09:43:22;4.33;;;2.83;;
527;SDS011;250;47.712;7.508;2022-07-12T09:45:50;4.10;;;2.93;;
527;SDS011;250;47.712;7.508;2022-07-12T09:48:18;5.10;;;3.60;;
527;SDS011;250;47.712;7.508;2022-07-12T09:50:47;8.83;;;3.40;;
527;SDS011;250;47.712;7.508;2022-07-12T09:53:19;3.03;;;2.43;;
527;SDS011;250;47.712;7.508;2022-07-12T09:55:51;5.03;;;2.83;;
527;SDS011;250;47.712;7.508;2022-07-12T09:58:22;3.90;;;2.17;;
527;SDS011;250;47.712;7.508;2022-07-12T10:00:52;2.73;;;1.93;;
527;SDS011;250;47.712;7.508;2022-07-12T10:03:23;4.93;;;2.23;;
527;SDS011;250;47.712;7.508;2022-07-12T10:05:51;3.23;;;2.10;;
527;SDS011;250;47.712;7.508;2022-07-12T10:08:20;2.20;;;1.63;;
527;SDS011;250;47.712;7.508;2022-07-12T10:10:48;3.33;;;2.23;;
527;SDS011;250;47.712;7.508;2022-07-12T10:13:16;4.40;;;2.00;;
527;SDS011;250;47.712;7.508;2022-07-12T10:15:46;4.37;;;2.43;;
527;SDS011;250;47.712;7.508;2022-07-12T10:18:15;2.90;;;2.30;;
527;SDS011;250;47.712;7.508;2022-07-12T10:20:45;2.87;;;2.43;;
527;SDS011;250;47.712;7.508;2022-07-12T10:23:35;3.77;;;2.40;;
527;SDS011;250;47.712;7.508;2022-07-12T10:29:02;2.93;;;2.40;;
527;SDS011;250;47.712;7.508;2022-07-12T10:31:32;3.70;;;2.00;;
527;SDS011;250;47.712;7.508;2022-07-12T10:34:11;3.97;;;2.70;;
527;SDS011;250;47.712;7.508;2022-07-12T10:37:09;3.10;;;2.43;;
527;SDS011;250;47.712;7.508;2022-07-12T10:39:37;3.40;;;2.00;;
527;SDS011;250;47.712;7.508;2022-07-12T10:42:14;2.97;;;2.33;;
527;SDS011;250;47.712;7.508;2022-07-12T10:44:43;2.93;;;2.50;;
527;SDS011;250;47.712;7.508;2022-07-12T10:47:12;3.70;;;2.80;;
527;SDS011;250;47.712;7.508;2022-07-12T10:49:48;3.07;;;2.10;;
527;SDS011;250;47.712;7.508;2022-07-12T10:52:27;2.80;;;2.47;;
527;SDS011;250;47.712;7.508;2022-07-12T10:57:44;5.13;;;3.10;;
527;SDS011;250;47.712;7.508;2022-07-12T11:00:19;2.93;;;2.37;;
527;SDS011;250;47.712;7.508;2022-07-12T11:02:48;3.80;;;2.63;;
527;SDS011;250;47.712;7.508;2022-07-12T11:05:15;4.90;;;2.60;;
527;SDS011;250;47.712;7.508;2022-07-12T11:07:43;3.00;;;2.43;;
527;SDS011;250;47.712;7.508;2022-07-12T11:10:11;4.00;;;2.77;;
527;SDS011;250;47.712;7.508;2022-07-12T11:12:39;3.13;;;2.60;;
527;SDS011;250;47.712;7.508;2022-07-12T11:15:07;4.00;;;2.60;;
527;SDS011;250;47.712;7.508;2022-07-12T11:17:35;4.00;;;2.50;;
527;SDS011;250;47.712;7.508;2022-07-12T11:20:02;3.17;;;2.83;;
527;SDS011;250;47.712;7.508;2022-07-12T11:22:35;5.37;;;3.20;;
527;SDS011;250;47.712;7.508;2022-07-12T11:25:05;2.93;;;2.50;;
527;SDS011;250;47.712;7.508;2022-07-12T11:27:34;5.27;;;3.17;;
527;SDS011;250;47.712;7.508;2022-07-12T11:30:03;2.70;;;2.23;;
527;SDS011;250;47.712;7.508;2022-07-12T11:32:35;3.90;;;2.67;;
527;SDS011;250;47.712;7.508;2022-07-12T11:35:04;3.73;;;2.63;;
527;SDS011;250;47.712;7.508;2022-07-12T11:37:48;2.70;;;2.10;;
527;SDS011;250;47.712;7.508;2022-07-12T11:40:22;3.70;;;2.50;;
527;SDS011;250;47.712;7.508;2022-07-12T11:42:56;4.17;;;3.03;;
527;SDS011;250;47.712;7.508;2022-07-12T11:45:25;3.10;;;2.70;;
527;SDS011;250;47.712;7.508;2022-07-12T11:47:53;3.20;;;2.60;;
527;SDS011;250;47.712;7.508;2022-07-12T11:50:21;2.83;;;2.30;;
527;SDS011;250;47.712;7.508;2022-07-12T11:52:49;3.20;;;2.70;;
527;SDS011;250;47.712;7.508;2022-07-12T11:55:16;2.50;;;2.30;;
527;SDS011;250;47.712;7.508;2022-07-12T11:57:45;2.47;;;2.27;;
527;SDS011;250;47.712;7.508;2022-07-12T12:00:16;3.13;;;2.37;;
527;SDS011;250;47.712;7.508;2022-07-12T12:02:45;2.90;;;2.50;;
527;SDS011;250;47.712;7.508;2022-07-12T12:05:17;3.10;;;2.70;;
527;SDS011;250;47.712;7.508;2022-07-12T12:07:44;3.17;;;2.70;;
527;SDS011;250;47.712;7.508;2022-07-12T12:10:12;4.20;;;2.87;;
527;SDS011;250;47.712;7.508;2022-07-12T12:12:41;2.80;;;2.40;;
527;SDS011;250;47.712;7.508;2022-07-12T12:15:12;2.83;;;2.40;;
527;SDS011;250;47.712;7.508;2022-07-12T12:17:44;3.30;;;2.67;;
527;SDS011;250;47.712;7.508;2022-07-12T12:20:14;2.90;;;2.53;;
527;SDS011;250;47.712;7.508;2022-07-12T12:22:43;5.50;;;2.73;;
527;SDS011;250;47.712;7.508;2022-07-12T12:25:11;2.43;;;1.90;;
527;SDS011;250;47.712;7.508;2022-07-12T12:27:40;4.90;;;2.83;;
527;SDS011;250;47.712;7.508;2022-07-12T12:30:09;2.67;;;2.20;;
527;SDS011;250;47.712;7.508;2022-07-12T12:32:48;4.37;;;2.40;;
527;SDS011;250;47.712;7.508;2022-07-12T12:35:17;2.60;;;2.40;;
527;SDS011;250;47.712;7.508;2022-07-12T12:37:49;2.83;;;2.53;;
527;SDS011;250;47.712;7.508;2022-07-12T12:40:18;2.63;;;2.20;;
527;SDS011;250;47.712;7.508;2022-07-12T12:42:46;2.70;;;2.40;;
527;SDS011;250;47.712;7.508;2022-07-12T12:45:17;4.00;;;2.63;;
527;SDS011;250;47.712;7.508;2022-07-12T12:47:56;3.87;;;2.37;;
527;SDS011;250;47.712;7.508;2022-07-12T12:50:35;2.87;;;2.57;;
527;SDS011;250;47.712;7.508;2022-07-12T12:53:10;3.43;;;2.63;;
527;SDS011;250;47.712;7.508;2022-07-12T12:55:40;3.13;;;2.83;;
527;SDS011;250;47.712;7.508;2022-07-12T12:58:07;6.53;;;2.67;;
527;SDS011;250;47.712;7.508;2022-07-12T13:00:36;2.70;;;2.10;;
527;SDS011;250;47.712;7.508;2022-07-12T13:03:06;6.80;;;2.73;;
527;SDS011;250;47.712;7.508;2022-07-12T13:05:33;2.90;;;2.40;;
527;SDS011;250;47.712;7.508;2022-07-12T13:08:01;3.20;;;2.57;;
527;SDS011;250;47.712;7.508;2022-07-12T13:10:30;4.23;;;2.50;;
527;SDS011;250;47.712;7.508;2022-07-12T13:12:58;2.93;;;2.40;;
527;SDS011;250;47.712;7.508;2022-07-12T13:15:25;2.97;;;2.53;;
527;SDS011;250;47.712;7.508;2022-07-12T13:17:53;3.70;;;3.20;;
527;SDS011;250;47.712;7.508;2022-07-12T13:20:22;4.60;;;2.87;;
527;SDS011;250;47.712;7.508;2022-07-12T13:22:50;11.83;;;3.50;;
527;SDS011;250;47.712;7.508;2022-07-12T13:25:17;3.40;;;2.60;;
527;SDS011;250;47.712;7.508;2022-07-12T13:27:45;4.13;;;2.40;;
527;SDS011;250;47.712;7.508;2022-07-12T13:30:13;2.70;;;2.20;;
527;SDS011;250;47.712;7.508;2022-07-12T13:32:41;5.43;;;2.30;;
527;SDS011;250;47.712;7.508;2022-07-12T13:35:09;2.77;;;2.47;;
527;SDS011;250;47.712;7.508;2022-07-12T13:37:40;3.60;;;2.30;;
527;SDS011;250;47.712;7.508;2022-07-12T13:40:08;3.67;;;2.60;;
527;SDS011;250;47.712;7.508;2022-07-12T13:42:42;3.07;;;2.77;;
527;SDS011;250;47.712;7.508;2022-07-12T13:45:10;3.00;;;2.47;;
527;SDS011;250;47.712;7.508;2022-07-12T13:47:39;2.87;;;2.47;;
527;SDS011;250;47.712;7.508;2022-07-12T13:50:07;3.50;;;2.30;;
527;SDS011;250;47.712;7.508;2022-07-12T13:52:36;3.57;;;2.70;;
527;SDS011;250;47.712;7.508;2022-07-12T13:55:06;5.03;;;2.60;;
527;SDS011;250;47.712;7.508;2022-07-12T13:57:34;2.70;;;2.50;;
527;SDS011;250;47.712;7.508;2022-07-12T14:00:03;9.53;;;4.33;;
527;SDS011;250;47.712;7.508;2022-07-12T14:02:34;2.80;;;2.50;;
527;SDS011;250;47.712;7.508;2022-07-12T14:05:02;2.57;;;2.37;;
527;SDS011;250;47.712;7.508;2022-07-12T14:07:30;3.03;;;2.50;;
527;SDS011;250;47.712;7.508;2022-07-12T14:09:58;3.23;;;2.53;;
527;SDS011;250;47.712;7.508;2022-07-12T14:12:27;5.13;;;2.60;;
527;SDS011;250;47.712;7.508;2022-07-12T14:14:54;3.60;;;2.90;;
527;SDS011;250;47.712;7.508;2022-07-12T14:17:39;3.27;;;2.50;;
527;SDS011;250;47.712;7.508;2022-07-12T14:20:07;2.63;;;2.17;;
527;SDS011;250;47.712;7.508;2022-07-12T14:22:35;2.93;;;2.17;;
527;SDS011;250;47.712;7.508;2022-07-12T14:25:03;4.50;;;2.97;;
527;SDS011;250;47.712;7.508;2022-07-12T14:27:33;3.27;;;2.60;;
527;SDS011;250;47.712;7.508;2022-07-12T14:30:00;3.63;;;2.97;;
527;SDS011;250;47.712;7.508;2022-07-12T14:32:29;3.30;;;2.33;;
527;SDS011;250;47.712;7.508;2022-07-12T14:34:56;9.10;;;3.27;;
527;SDS011;250;47.712;7.508;2022-07-12T14:37:23;3.43;;;2.80;;
527;SDS011;250;47.712;7.508;2022-07-12T14:39:50;3.70;;;2.60;;
527;SDS011;250;47.712;7.508;2022-07-12T14:42:17;2.53;;;1.97;;
527;SDS011;250;47.712;7.508;2022-07-12T14:44:46;4.03;;;2.70;;
527;SDS011;250;47.712;7.508;2022-07-12T14:47:13;3.50;;;2.50;;
527;SDS011;250;47.712;7.508;2022-07-12T14:49:40;4.83;;;2.27;;
527;SDS011;250;47.712;7.508;2022-07-12T14:52:07;3.07;;;2.60;;
527;SDS011;250;47.712;7.508;2022-07-12T14:54:34;3.60;;;2.10;;
527;SDS011;250;47.712;7.508;2022-07-12T14:57:02;3.00;;;2.70;;
527;SDS011;250;47.712;7.508;2022-07-12T14:59:29;3.17;;;2.00;;
527;SDS011;250;47.712;7.508;2022-07-12T15:01:58;5.03;;;2.47;;
527;SDS011;250;47.712;7.508;2022-07-12T15:04:25;3.20;;;2.23;;
527;SDS011;250;47.712;7.508;2022-07-12T15:06:53;2.60;;;2.40;;
527;SDS011;250;47.712;7.508;2022-07-12T15:09:20;3.20;;;2.30;;
527;SDS011;250;47.712;7.508;2022-07-12T15:11:47;3.33;;;2.03;;
527;SDS011;250;47.712;7.508;2022-07-12T15:14:14;2.40;;;1.80;;
527;SDS011;250;47.712;7.508;2022-07-12T15:16:41;4.50;;;2.10;;
527;SDS011;250;47.712;7.508;2022-07-12T15:19:10;3.13;;;2.50;;
527;SDS011;250;47.712;7.508;2022-07-12T15:21:37;2.53;;;2.10;;
527;SDS011;250;47.712;7.508;2022-07-12T15:24:04;3.10;;;2.40;;
527;SDS011;250;47.712;7.508;2022-07-12T15:26:31;3.07;;;2.60;;
527;SDS011;250;47.712;7.508;2022-07-12T15:28:59;2.70;;;2.30;;
527;SDS011;250;47.712;7.508;2022-07-12T15:31:28;3.00;;;2.40;;
527;SDS011;250;47.712;7.508;2022-07-12T15:33:56;2.60;;;1.97;;
527;SDS011;250;47.712;7.508;2022-07-12T15:36:25;3.30;;;2.40;;
527;SDS011;250;47.712;7.508;2022-07-12T15:38:52;3.60;;;2.00;;
527;SDS011;250;47.712;7.508;2022-07-12T15:41:19;4.63;;;2.50;;
527;SDS011;250;47.712;7.508;2022-07-12T15:43:47;3.93;;;2.73;;
527;SDS011;250;47.712;7.508;2022-07-12T15:46:14;3.27;;;2.50;;
527;SDS011;250;47.712;7.508;2022-07-12T15:48:42;2.57;;;2.07;;
527;SDS011;250;47.712;7.508;2022-07-12T15:51:09;3.10;;;2.30;;
527;SDS011;250;47.712;7.508;2022-07-12T15:53:38;7.90;;;2.37;;
527;SDS011;250;47.712;7.508;2022-07-12T15:56:05;3.83;;;2.40;;
527;SDS011;250;47.712;7.508;2022-07-12T15:58:34;2.93;;;2.27;;